Hohenfels Army Air Field ETIH

Flugplatz Daten

Name: Hohenfels Army Air Field

Ident: ETIH

Lat: 49,2181015

Long: 11,83609962

Platzhöhe: 1455 ft

IataCode:

City:

Metar

2022/08/15 17:56
ETIH 151756Z AUTO 30005KT 9999 CLR 26/08 A2974 RMK AO2 SLP053 T02580083 10287 20258 53006

Taf

2022/06/16 22:08
TAF ETIH 162200Z 1622/1804 VRB06KT 9999 SCT035 QNH3018INS TX21/1715Z TN13/1704Z
Gewünschte Webcam nicht vorhanden? Dann fügen Sie eine hinzu. Sie wird dann so schnell wie möglich freigeschaltet
Url: Title: